sensor_id;sensor_type;location;lat;lon;timestamp;temperature;humidity
48535;DHT22;34323;52.022;5.686;2023-07-29T00:00:55;25.50;99.90
48535;DHT22;34323;52.022;5.686;2023-07-29T00:03:21;25.40;99.90
48535;DHT22;34323;52.022;5.686;2023-07-29T00:05:47;25.40;99.90
48535;DHT22;34323;52.022;5.686;2023-07-29T00:08:13;25.40;99.90
48535;DHT22;34323;52.022;5.686;2023-07-29T00:10:39;25.30;99.90
48535;DHT22;34323;52.022;5.686;2023-07-29T00:13:05;25.10;99.90
48535;DHT22;34323;52.022;5.686;2023-07-29T00:15:31;25.10;99.90
48535;DHT22;34323;52.022;5.686;2023-07-29T00:17:57;25.20;99.90
48535;DHT22;34323;52.022;5.686;2023-07-29T00:20:23;25.20;99.90
48535;DHT22;34323;52.022;5.686;2023-07-29T00:22:48;25.20;99.90
48535;DHT22;34323;52.022;5.686;2023-07-29T00:25:19;25.10;99.90
48535;DHT22;34323;52.022;5.686;2023-07-29T00:27:45;25.10;99.90
48535;DHT22;34323;52.022;5.686;2023-07-29T00:30:11;25.00;99.90
48535;DHT22;34323;52.022;5.686;2023-07-29T00:32:37;25.00;99.90
48535;DHT22;34323;52.022;5.686;2023-07-29T00:35:02;25.00;99.90
48535;DHT22;34323;52.022;5.686;2023-07-29T00:37:29;25.00;99.90
48535;DHT22;34323;52.022;5.686;2023-07-29T00:39:55;24.80;99.90
48535;DHT22;34323;52.022;5.686;2023-07-29T00:42:21;24.80;99.90
48535;DHT22;34323;52.022;5.686;2023-07-29T00:44:46;24.90;99.90
48535;DHT22;34323;52.022;5.686;2023-07-29T00:47:12;24.80;99.90
48535;DHT22;34323;52.022;5.686;2023-07-29T00:49:40;25.00;99.90
48535;DHT22;34323;52.022;5.686;2023-07-29T00:52:06;25.00;99.90
48535;DHT22;34323;52.022;5.686;2023-07-29T00:54:31;24.90;99.90
48535;DHT22;34323;52.022;5.686;2023-07-29T00:56:57;24.70;99.90
48535;DHT22;34323;52.022;5.686;2023-07-29T00:59:23;24.70;99.90
48535;DHT22;34323;52.022;5.686;2023-07-29T01:01:48;24.60;99.90
48535;DHT22;34323;52.022;5.686;2023-07-29T01:04:14;24.70;99.90
48535;DHT22;34323;52.022;5.686;2023-07-29T01:06:53;24.70;99.90
48535;DHT22;34323;52.022;5.686;2023-07-29T01:12:51;24.60;99.90
48535;DHT22;34323;52.022;5.686;2023-07-29T01:15:18;24.40;99.90
48535;DHT22;34323;52.022;5.686;2023-07-29T01:17:59;24.40;99.90
48535;DHT22;34323;52.022;5.686;2023-07-29T01:20:29;24.10;99.90
48535;DHT22;34323;52.022;5.686;2023-07-29T01:22:57;23.40;99.90
48535;DHT22;34323;52.022;5.686;2023-07-29T01:25:23;23.10;99.90
48535;DHT22;34323;52.022;5.686;2023-07-29T01:27:49;23.20;99.90
48535;DHT22;34323;52.022;5.686;2023-07-29T01:30:17;23.50;99.90
48535;DHT22;34323;52.022;5.686;2023-07-29T01:32:54;23.70;99.90
48535;DHT22;34323;52.022;5.686;2023-07-29T01:35:31;23.80;99.90
48535;DHT22;34323;52.022;5.686;2023-07-29T01:38:29;24.00;99.90
48535;DHT22;34323;52.022;5.686;2023-07-29T01:40:59;24.20;99.90
48535;DHT22;34323;52.022;5.686;2023-07-29T01:43:28;24.30;99.90
48535;DHT22;34323;52.022;5.686;2023-07-29T01:45:54;24.40;99.90
48535;DHT22;34323;52.022;5.686;2023-07-29T01:48:19;24.50;99.90
48535;DHT22;34323;52.022;5.686;2023-07-29T01:50:45;24.50;99.90
48535;DHT22;34323;52.022;5.686;2023-07-29T01:53:10;24.40;99.90
48535;DHT22;34323;52.022;5.686;2023-07-29T01:55:36;24.30;99.90
48535;DHT22;34323;52.022;5.686;2023-07-29T01:58:01;24.40;99.90
48535;DHT22;34323;52.022;5.686;2023-07-29T02:00:27;24.40;99.90
48535;DHT22;34323;52.022;5.686;2023-07-29T02:02:53;24.40;99.90
48535;DHT22;34323;52.022;5.686;2023-07-29T02:05:18;24.40;99.90
48535;DHT22;34323;52.022;5.686;2023-07-29T02:07:44;24.50;99.90
48535;DHT22;34323;52.022;5.686;2023-07-29T02:10:09;24.50;99.90
48535;DHT22;34323;52.022;5.686;2023-07-29T02:12:35;24.30;99.90
48535;DHT22;34323;52.022;5.686;2023-07-29T02:15:00;24.50;99.90
48535;DHT22;34323;52.022;5.686;2023-07-29T02:17:26;24.50;99.90
48535;DHT22;34323;52.022;5.686;2023-07-29T02:19:52;24.50;99.90
48535;DHT22;34323;52.022;5.686;2023-07-29T02:22:17;24.50;99.90
48535;DHT22;34323;52.022;5.686;2023-07-29T02:24:44;24.70;99.90
48535;DHT22;34323;52.022;5.686;2023-07-29T02:27:10;24.70;99.90
48535;DHT22;34323;52.022;5.686;2023-07-29T02:29:35;24.60;99.90
48535;DHT22;34323;52.022;5.686;2023-07-29T02:32:02;24.60;99.90
48535;DHT22;34323;52.022;5.686;2023-07-29T02:34:27;24.90;99.90
48535;DHT22;34323;52.022;5.686;2023-07-29T02:36:53;24.90;99.90
48535;DHT22;34323;52.022;5.686;2023-07-29T02:39:18;25.00;99.90
48535;DHT22;34323;52.022;5.686;2023-07-29T02:41:44;24.90;99.90
48535;DHT22;34323;52.022;5.686;2023-07-29T02:44:10;24.90;99.90
48535;DHT22;34323;52.022;5.686;2023-07-29T02:46:36;25.00;99.90
48535;DHT22;34323;52.022;5.686;2023-07-29T02:49:02;25.00;99.90
48535;DHT22;34323;52.022;5.686;2023-07-29T02:51:28;25.10;99.90
48535;DHT22;34323;52.022;5.686;2023-07-29T02:53:53;25.10;99.90
48535;DHT22;34323;52.022;5.686;2023-07-29T02:56:19;25.00;99.90
48535;DHT22;34323;52.022;5.686;2023-07-29T02:58:45;25.10;99.90
48535;DHT22;34323;52.022;5.686;2023-07-29T03:01:10;25.10;99.90
48535;DHT22;34323;52.022;5.686;2023-07-29T03:03:36;25.10;99.90
48535;DHT22;34323;52.022;5.686;2023-07-29T03:06:06;24.80;99.90
48535;DHT22;34323;52.022;5.686;2023-07-29T03:08:32;25.00;99.90
48535;DHT22;34323;52.022;5.686;2023-07-29T03:10:58;25.10;99.90
48535;DHT22;34323;52.022;5.686;2023-07-29T03:13:24;25.10;99.90
48535;DHT22;34323;52.022;5.686;2023-07-29T03:15:51;24.90;99.90
48535;DHT22;34323;52.022;5.686;2023-07-29T03:18:16;24.80;99.90
48535;DHT22;34323;52.022;5.686;2023-07-29T03:20:42;24.90;99.90
48535;DHT22;34323;52.022;5.686;2023-07-29T03:23:07;24.80;99.90
48535;DHT22;34323;52.022;5.686;2023-07-29T03:25:33;24.90;99.90
48535;DHT22;34323;52.022;5.686;2023-07-29T03:27:59;24.90;99.90
48535;DHT22;34323;52.022;5.686;2023-07-29T03:30:24;24.90;99.90
48535;DHT22;34323;52.022;5.686;2023-07-29T03:32:50;24.90;99.90
48535;DHT22;34323;52.022;5.686;2023-07-29T03:35:16;24.90;99.90
48535;DHT22;34323;52.022;5.686;2023-07-29T03:37:42;25.00;99.90
48535;DHT22;34323;52.022;5.686;2023-07-29T03:40:08;24.70;99.90
48535;DHT22;34323;52.022;5.686;2023-07-29T03:42:36;24.60;99.90
48535;DHT22;34323;52.022;5.686;2023-07-29T03:45:02;24.50;99.90
48535;DHT22;34323;52.022;5.686;2023-07-29T03:47:28;24.50;99.90
48535;DHT22;34323;52.022;5.686;2023-07-29T03:49:53;24.50;99.90
48535;DHT22;34323;52.022;5.686;2023-07-29T03:52:19;24.60;99.90
48535;DHT22;34323;52.022;5.686;2023-07-29T03:54:45;24.60;99.90
48535;DHT22;34323;52.022;5.686;2023-07-29T03:57:11;24.60;99.90
48535;DHT22;34323;52.022;5.686;2023-07-29T03:59:36;24.60;99.90
48535;DHT22;34323;52.022;5.686;2023-07-29T04:02:02;24.50;99.90
48535;DHT22;34323;52.022;5.686;2023-07-29T04:04:28;24.50;99.90
48535;DHT22;34323;52.022;5.686;2023-07-29T04:06:53;24.50;99.90
48535;DHT22;34323;52.022;5.686;2023-07-29T04:09:19;24.40;99.90
48535;DHT22;34323;52.022;5.686;2023-07-29T04:11:44;24.50;99.90
48535;DHT22;34323;52.022;5.686;2023-07-29T04:14:10;24.40;99.90
48535;DHT22;34323;52.022;5.686;2023-07-29T04:16:36;24.40;99.90
48535;DHT22;34323;52.022;5.686;2023-07-29T04:19:01;24.40;99.90
48535;DHT22;34323;52.022;5.686;2023-07-29T04:21:27;24.30;99.90
48535;DHT22;34323;52.022;5.686;2023-07-29T04:23:52;24.20;99.90
48535;DHT22;34323;52.022;5.686;2023-07-29T04:26:18;24.10;99.90
48535;DHT22;34323;52.022;5.686;2023-07-29T04:28:43;24.00;99.90
48535;DHT22;34323;52.022;5.686;2023-07-29T04:31:09;23.80;99.90
48535;DHT22;34323;52.022;5.686;2023-07-29T04:33:34;23.70;99.90
48535;DHT22;34323;52.022;5.686;2023-07-29T04:36:00;23.80;99.90
48535;DHT22;34323;52.022;5.686;2023-07-29T04:38:31;23.90;99.90
48535;DHT22;34323;52.022;5.686;2023-07-29T04:40:57;24.00;99.90
48535;DHT22;34323;52.022;5.686;2023-07-29T04:43:27;24.00;99.90
48535;DHT22;34323;52.022;5.686;2023-07-29T04:45:53;24.10;99.90
48535;DHT22;34323;52.022;5.686;2023-07-29T04:48:18;24.20;99.90
48535;DHT22;34323;52.022;5.686;2023-07-29T04:50:44;24.30;99.90
48535;DHT22;34323;52.022;5.686;2023-07-29T04:53:09;24.30;99.90
48535;DHT22;34323;52.022;5.686;2023-07-29T04:55:35;24.20;99.90
48535;DHT22;34323;52.022;5.686;2023-07-29T04:58:00;24.20;99.90
48535;DHT22;34323;52.022;5.686;2023-07-29T05:00:26;23.90;99.90
48535;DHT22;34323;52.022;5.686;2023-07-29T05:02:51;24.00;99.90
48535;DHT22;34323;52.022;5.686;2023-07-29T05:05:17;23.80;99.90
48535;DHT22;34323;52.022;5.686;2023-07-29T05:07:43;23.90;99.90
48535;DHT22;34323;52.022;5.686;2023-07-29T05:10:08;23.90;99.90
48535;DHT22;34323;52.022;5.686;2023-07-29T05:12:34;23.90;99.90
48535;DHT22;34323;52.022;5.686;2023-07-29T05:14:59;23.70;99.90
48535;DHT22;34323;52.022;5.686;2023-07-29T05:17:25;23.60;99.90
48535;DHT22;34323;52.022;5.686;2023-07-29T05:19:51;23.60;99.90
48535;DHT22;34323;52.022;5.686;2023-07-29T05:22:16;23.60;99.90
48535;DHT22;34323;52.022;5.686;2023-07-29T05:24:42;23.60;99.90
48535;DHT22;34323;52.022;5.686;2023-07-29T05:27:07;23.40;99.90
48535;DHT22;34323;52.022;5.686;2023-07-29T05:29:34;23.10;99.90
48535;DHT22;34323;52.022;5.686;2023-07-29T05:31:59;23.20;99.90
48535;DHT22;34323;52.022;5.686;2023-07-29T05:34:26;23.40;99.90
48535;DHT22;34323;52.022;5.686;2023-07-29T05:36:52;23.30;99.90
48535;DHT22;34323;52.022;5.686;2023-07-29T05:39:17;23.30;99.90
48535;DHT22;34323;52.022;5.686;2023-07-29T05:41:43;23.40;99.90
48535;DHT22;34323;52.022;5.686;2023-07-29T05:44:08;23.50;99.90
48535;DHT22;34323;52.022;5.686;2023-07-29T05:46:34;23.60;99.90
48535;DHT22;34323;52.022;5.686;2023-07-29T05:48:59;23.70;99.90
48535;DHT22;34323;52.022;5.686;2023-07-29T05:51:25;23.50;99.90
48535;DHT22;34323;52.022;5.686;2023-07-29T05:53:50;23.50;99.90
48535;DHT22;34323;52.022;5.686;2023-07-29T05:56:16;23.30;99.90
48535;DHT22;34323;52.022;5.686;2023-07-29T05:58:41;23.30;99.90
48535;DHT22;34323;52.022;5.686;2023-07-29T06:01:07;23.50;99.90
48535;DHT22;34323;52.022;5.686;2023-07-29T06:03:32;23.30;99.90
48535;DHT22;34323;52.022;5.686;2023-07-29T06:05:58;23.30;99.90
48535;DHT22;34323;52.022;5.686;2023-07-29T06:08:23;23.30;99.90
48535;DHT22;34323;52.022;5.686;2023-07-29T06:10:49;23.30;99.90
48535;DHT22;34323;52.022;5.686;2023-07-29T06:13:14;23.30;99.90
48535;DHT22;34323;52.022;5.686;2023-07-29T06:15:40;23.50;99.90
48535;DHT22;34323;52.022;5.686;2023-07-29T06:18:05;23.70;99.90
48535;DHT22;34323;52.022;5.686;2023-07-29T06:20:31;23.40;99.90
48535;DHT22;34323;52.022;5.686;2023-07-29T06:22:56;23.40;99.90
48535;DHT22;34323;52.022;5.686;2023-07-29T06:25:22;23.30;99.90
48535;DHT22;34323;52.022;5.686;2023-07-29T06:27:48;23.30;99.90
48535;DHT22;34323;52.022;5.686;2023-07-29T06:30:13;23.50;99.90
48535;DHT22;34323;52.022;5.686;2023-07-29T06:32:39;23.30;99.90
48535;DHT22;34323;52.022;5.686;2023-07-29T06:35:05;23.10;99.90
48535;DHT22;34323;52.022;5.686;2023-07-29T06:37:30;23.20;99.90
48535;DHT22;34323;52.022;5.686;2023-07-29T06:39:56;23.30;99.90
48535;DHT22;34323;52.022;5.686;2023-07-29T06:42:21;23.60;99.90
48535;DHT22;34323;52.022;5.686;2023-07-29T06:44:47;23.60;99.90
48535;DHT22;34323;52.022;5.686;2023-07-29T06:47:12;23.50;99.90
48535;DHT22;34323;52.022;5.686;2023-07-29T06:49:38;23.30;99.90
48535;DHT22;34323;52.022;5.686;2023-07-29T06:52:04;23.20;99.90
48535;DHT22;34323;52.022;5.686;2023-07-29T06:54:29;23.20;99.90
48535;DHT22;34323;52.022;5.686;2023-07-29T06:56:55;23.20;99.90
48535;DHT22;34323;52.022;5.686;2023-07-29T06:59:21;23.20;99.90
48535;DHT22;34323;52.022;5.686;2023-07-29T07:01:46;23.20;99.90
48535;DHT22;34323;52.022;5.686;2023-07-29T07:04:12;23.40;99.90
48535;DHT22;34323;52.022;5.686;2023-07-29T07:06:37;23.30;99.90
48535;DHT22;34323;52.022;5.686;2023-07-29T07:09:03;23.30;99.90
48535;DHT22;34323;52.022;5.686;2023-07-29T07:11:29;23.60;99.90
48535;DHT22;34323;52.022;5.686;2023-07-29T07:13:54;23.60;99.90
48535;DHT22;34323;52.022;5.686;2023-07-29T07:16:20;23.90;99.90
48535;DHT22;34323;52.022;5.686;2023-07-29T07:18:45;24.30;99.90
48535;DHT22;34323;52.022;5.686;2023-07-29T07:21:11;24.30;99.90
48535;DHT22;34323;52.022;5.686;2023-07-29T07:23:36;24.40;99.90
48535;DHT22;34323;52.022;5.686;2023-07-29T07:26:02;24.20;99.90
48535;DHT22;34323;52.022;5.686;2023-07-29T07:28:28;24.10;99.90
48535;DHT22;34323;52.022;5.686;2023-07-29T07:30:53;23.90;99.90
48535;DHT22;34323;52.022;5.686;2023-07-29T07:33:21;23.70;99.90
48535;DHT22;34323;52.022;5.686;2023-07-29T07:35:46;23.50;99.90
48535;DHT22;34323;52.022;5.686;2023-07-29T07:38:12;23.40;99.90
48535;DHT22;34323;52.022;5.686;2023-07-29T07:40:38;23.20;99.90
48535;DHT22;34323;52.022;5.686;2023-07-29T07:43:03;23.50;99.90
48535;DHT22;34323;52.022;5.686;2023-07-29T07:45:29;24.00;99.90
48535;DHT22;34323;52.022;5.686;2023-07-29T07:47:55;23.90;99.90
48535;DHT22;34323;52.022;5.686;2023-07-29T07:50:21;23.80;99.90
48535;DHT22;34323;52.022;5.686;2023-07-29T07:52:47;23.60;99.90
48535;DHT22;34323;52.022;5.686;2023-07-29T07:55:12;23.40;99.90
48535;DHT22;34323;52.022;5.686;2023-07-29T07:57:38;23.70;99.90
48535;DHT22;34323;52.022;5.686;2023-07-29T08:00:04;24.00;99.90
48535;DHT22;34323;52.022;5.686;2023-07-29T08:02:30;24.00;99.90
48535;DHT22;34323;52.022;5.686;2023-07-29T08:04:55;23.90;99.90
48535;DHT22;34323;52.022;5.686;2023-07-29T08:07:21;23.90;99.90
48535;DHT22;34323;52.022;5.686;2023-07-29T08:09:47;23.90;99.90
48535;DHT22;34323;52.022;5.686;2023-07-29T08:12:12;23.80;99.90
48535;DHT22;34323;52.022;5.686;2023-07-29T08:14:38;24.00;99.90
48535;DHT22;34323;52.022;5.686;2023-07-29T08:17:03;23.80;99.90
48535;DHT22;34323;52.022;5.686;2023-07-29T08:19:29;23.50;99.90
48535;DHT22;34323;52.022;5.686;2023-07-29T08:21:55;23.70;99.90
48535;DHT22;34323;52.022;5.686;2023-07-29T08:24:20;23.50;99.90
48535;DHT22;34323;52.022;5.686;2023-07-29T08:26:46;23.70;99.90
48535;DHT22;34323;52.022;5.686;2023-07-29T08:29:11;23.80;99.90
48535;DHT22;34323;52.022;5.686;2023-07-29T08:31:37;24.10;99.90
48535;DHT22;34323;52.022;5.686;2023-07-29T08:34:03;24.50;99.90
48535;DHT22;34323;52.022;5.686;2023-07-29T08:36:28;24.60;99.90
48535;DHT22;34323;52.022;5.686;2023-07-29T08:38:54;24.60;99.90
48535;DHT22;34323;52.022;5.686;2023-07-29T08:44:22;24.00;99.90
48535;DHT22;34323;52.022;5.686;2023-07-29T08:46:48;24.00;99.90
48535;DHT22;34323;52.022;5.686;2023-07-29T08:49:15;23.60;99.90
48535;DHT22;34323;52.022;5.686;2023-07-29T08:51:44;23.50;99.90
48535;DHT22;34323;52.022;5.686;2023-07-29T08:54:12;23.90;99.90
48535;DHT22;34323;52.022;5.686;2023-07-29T08:56:40;24.30;99.90
48535;DHT22;34323;52.022;5.686;2023-07-29T08:59:06;24.60;99.90
48535;DHT22;34323;52.022;5.686;2023-07-29T09:01:32;24.80;99.90
48535;DHT22;34323;52.022;5.686;2023-07-29T09:03:58;24.80;99.90
48535;DHT22;34323;52.022;5.686;2023-07-29T09:06:24;24.30;99.90
48535;DHT22;34323;52.022;5.686;2023-07-29T09:08:51;24.00;99.90
48535;DHT22;34323;52.022;5.686;2023-07-29T09:11:18;24.00;99.90
48535;DHT22;34323;52.022;5.686;2023-07-29T09:13:45;24.20;99.90
48535;DHT22;34323;52.022;5.686;2023-07-29T09:16:11;24.20;99.90
48535;DHT22;34323;52.022;5.686;2023-07-29T09:18:37;24.40;99.90
48535;DHT22;34323;52.022;5.686;2023-07-29T09:21:03;24.70;99.90
48535;DHT22;34323;52.022;5.686;2023-07-29T09:23:38;24.60;99.90
48535;DHT22;34323;52.022;5.686;2023-07-29T09:26:05;24.40;99.90
48535;DHT22;34323;52.022;5.686;2023-07-29T09:28:35;24.40;99.90
48535;DHT22;34323;52.022;5.686;2023-07-29T09:31:01;24.50;99.90
48535;DHT22;34323;52.022;5.686;2023-07-29T09:33:28;24.90;99.90
48535;DHT22;34323;52.022;5.686;2023-07-29T09:35:53;24.60;99.90
48535;DHT22;34323;52.022;5.686;2023-07-29T09:38:26;24.80;99.90
48535;DHT22;34323;52.022;5.686;2023-07-29T09:40:55;25.20;99.90
48535;DHT22;34323;52.022;5.686;2023-07-29T09:43:25;25.30;99.90
48535;DHT22;34323;52.022;5.686;2023-07-29T09:45:52;25.00;99.90
48535;DHT22;34323;52.022;5.686;2023-07-29T09:48:22;24.90;99.90
48535;DHT22;34323;52.022;5.686;2023-07-29T09:50:48;25.40;99.90
48535;DHT22;34323;52.022;5.686;2023-07-29T09:53:14;25.40;99.90
48535;DHT22;34323;52.022;5.686;2023-07-29T09:55:39;25.50;99.90
48535;DHT22;34323;52.022;5.686;2023-07-29T09:58:06;25.70;99.90
48535;DHT22;34323;52.022;5.686;2023-07-29T10:00:33;25.70;99.90
48535;DHT22;34323;52.022;5.686;2023-07-29T10:03:00;25.80;99.90
48535;DHT22;34323;52.022;5.686;2023-07-29T10:05:26;25.80;99.90
48535;DHT22;34323;52.022;5.686;2023-07-29T10:07:52;25.90;99.90
48535;DHT22;34323;52.022;5.686;2023-07-29T10:10:20;26.20;99.90
48535;DHT22;34323;52.022;5.686;2023-07-29T10:12:46;26.10;99.90
48535;DHT22;34323;52.022;5.686;2023-07-29T10:15:12;26.30;99.90
48535;DHT22;34323;52.022;5.686;2023-07-29T10:17:38;26.40;99.90
48535;DHT22;34323;52.022;5.686;2023-07-29T10:20:06;26.50;99.90
48535;DHT22;34323;52.022;5.686;2023-07-29T10:22:35;26.50;99.90
48535;DHT22;34323;52.022;5.686;2023-07-29T10:25:04;26.60;99.90
48535;DHT22;34323;52.022;5.686;2023-07-29T10:27:39;26.50;99.90
48535;DHT22;34323;52.022;5.686;2023-07-29T10:30:07;26.60;99.90
48535;DHT22;34323;52.022;5.686;2023-07-29T10:32:33;26.70;99.90
48535;DHT22;34323;52.022;5.686;2023-07-29T10:34:59;25.90;99.90
48535;DHT22;34323;52.022;5.686;2023-07-29T10:37:24;25.70;99.90
48535;DHT22;34323;52.022;5.686;2023-07-29T10:39:54;26.00;99.90
48535;DHT22;34323;52.022;5.686;2023-07-29T10:42:20;26.10;99.90
48535;DHT22;34323;52.022;5.686;2023-07-29T10:44:47;26.20;99.90
48535;DHT22;34323;52.022;5.686;2023-07-29T10:47:20;26.50;99.90
48535;DHT22;34323;52.022;5.686;2023-07-29T10:49:49;26.90;99.90
48535;DHT22;34323;52.022;5.686;2023-07-29T10:52:16;26.90;99.90
48535;DHT22;34323;52.022;5.686;2023-07-29T10:54:46;26.50;99.90
48535;DHT22;34323;52.022;5.686;2023-07-29T10:57:36;26.30;99.90
48535;DHT22;34323;52.022;5.686;2023-07-29T11:00:03;26.20;99.90
48535;DHT22;34323;52.022;5.686;2023-07-29T11:02:32;26.30;99.90
48535;DHT22;34323;52.022;5.686;2023-07-29T11:04:58;26.30;99.90
48535;DHT22;34323;52.022;5.686;2023-07-29T11:07:26;26.20;99.90
48535;DHT22;34323;52.022;5.686;2023-07-29T11:10:02;26.30;99.90
48535;DHT22;34323;52.022;5.686;2023-07-29T11:12:43;26.20;99.90
48535;DHT22;34323;52.022;5.686;2023-07-29T11:17:43;26.10;99.90
48535;DHT22;34323;52.022;5.686;2023-07-29T11:20:09;25.90;99.90
48535;DHT22;34323;52.022;5.686;2023-07-29T11:22:36;25.80;99.90
48535;DHT22;34323;52.022;5.686;2023-07-29T11:25:02;25.90;99.90
48535;DHT22;34323;52.022;5.686;2023-07-29T11:27:28;25.60;99.90
48535;DHT22;34323;52.022;5.686;2023-07-29T11:29:58;25.20;99.90
48535;DHT22;34323;52.022;5.686;2023-07-29T11:32:25;25.20;99.90
48535;DHT22;34323;52.022;5.686;2023-07-29T11:34:50;25.20;99.90
48535;DHT22;34323;52.022;5.686;2023-07-29T11:37:16;25.10;99.90
48535;DHT22;34323;52.022;5.686;2023-07-29T11:39:43;25.30;99.90
48535;DHT22;34323;52.022;5.686;2023-07-29T11:42:14;25.20;99.90
48535;DHT22;34323;52.022;5.686;2023-07-29T11:44:40;25.40;99.90
48535;DHT22;34323;52.022;5.686;2023-07-29T11:47:07;25.60;99.90
48535;DHT22;34323;52.022;5.686;2023-07-29T11:49:33;25.50;99.90
48535;DHT22;34323;52.022;5.686;2023-07-29T11:51:59;24.90;99.90
48535;DHT22;34323;52.022;5.686;2023-07-29T11:54:25;24.20;99.90
48535;DHT22;34323;52.022;5.686;2023-07-29T11:56:51;24.30;99.90
48535;DHT22;34323;52.022;5.686;2023-07-29T11:59:16;24.50;99.90
48535;DHT22;34323;52.022;5.686;2023-07-29T12:01:42;24.80;99.90
48535;DHT22;34323;52.022;5.686;2023-07-29T12:04:08;24.90;99.90
48535;DHT22;34323;52.022;5.686;2023-07-29T12:06:34;25.00;99.90
48535;DHT22;34323;52.022;5.686;2023-07-29T12:09:00;24.80;99.90
48535;DHT22;34323;52.022;5.686;2023-07-29T12:11:26;24.80;99.90
48535;DHT22;34323;52.022;5.686;2023-07-29T12:13:53;24.70;99.90
48535;DHT22;34323;52.022;5.686;2023-07-29T12:16:19;24.90;99.90
48535;DHT22;34323;52.022;5.686;2023-07-29T12:18:45;25.00;99.90
48535;DHT22;34323;52.022;5.686;2023-07-29T12:21:13;24.90;99.90
48535;DHT22;34323;52.022;5.686;2023-07-29T12:23:39;25.00;99.90
48535;DHT22;34323;52.022;5.686;2023-07-29T12:26:04;25.20;99.90
48535;DHT22;34323;52.022;5.686;2023-07-29T12:28:30;25.20;99.90
48535;DHT22;34323;52.022;5.686;2023-07-29T12:30:56;25.50;99.90
48535;DHT22;34323;52.022;5.686;2023-07-29T12:33:36;25.80;99.90
48535;DHT22;34323;52.022;5.686;2023-07-29T12:36:04;26.10;99.90
48535;DHT22;34323;52.022;5.686;2023-07-29T12:38:30;26.40;99.90
48535;DHT22;34323;52.022;5.686;2023-07-29T12:40:56;26.20;99.90
48535;DHT22;34323;52.022;5.686;2023-07-29T12:43:22;26.50;99.90
48535;DHT22;34323;52.022;5.686;2023-07-29T12:45:51;26.60;99.90
48535;DHT22;34323;52.022;5.686;2023-07-29T12:48:16;26.60;99.90
48535;DHT22;34323;52.022;5.686;2023-07-29T12:50:42;26.60;99.90
48535;DHT22;34323;52.022;5.686;2023-07-29T12:53:08;26.90;99.90
48535;DHT22;34323;52.022;5.686;2023-07-29T12:55:37;27.10;99.90
48535;DHT22;34323;52.022;5.686;2023-07-29T12:58:03;27.20;99.90
48535;DHT22;34323;52.022;5.686;2023-07-29T13:00:29;26.80;99.90
48535;DHT22;34323;52.022;5.686;2023-07-29T13:02:54;26.70;99.90
48535;DHT22;34323;52.022;5.686;2023-07-29T13:05:20;26.50;99.90
48535;DHT22;34323;52.022;5.686;2023-07-29T13:07:45;26.00;99.90
48535;DHT22;34323;52.022;5.686;2023-07-29T13:10:11;25.40;99.90
48535;DHT22;34323;52.022;5.686;2023-07-29T13:12:38;25.40;99.90
48535;DHT22;34323;52.022;5.686;2023-07-29T13:15:04;25.60;99.90
48535;DHT22;34323;52.022;5.686;2023-07-29T13:17:30;25.90;99.90
48535;DHT22;34323;52.022;5.686;2023-07-29T13:19:55;25.70;99.90
48535;DHT22;34323;52.022;5.686;2023-07-29T13:22:21;25.40;99.90
48535;DHT22;34323;52.022;5.686;2023-07-29T13:24:46;25.30;99.90
48535;DHT22;34323;52.022;5.686;2023-07-29T13:27:12;25.50;99.90
48535;DHT22;34323;52.022;5.686;2023-07-29T13:29:37;25.40;99.90
48535;DHT22;34323;52.022;5.686;2023-07-29T13:32:03;25.60;99.90
48535;DHT22;34323;52.022;5.686;2023-07-29T13:34:29;25.80;99.90
48535;DHT22;34323;52.022;5.686;2023-07-29T13:36:54;25.60;99.90
48535;DHT22;34323;52.022;5.686;2023-07-29T13:39:20;25.80;99.90
48535;DHT22;34323;52.022;5.686;2023-07-29T13:41:45;25.40;99.90
48535;DHT22;34323;52.022;5.686;2023-07-29T13:44:11;24.80;99.90
48535;DHT22;34323;52.022;5.686;2023-07-29T13:46:36;24.90;99.90
48535;DHT22;34323;52.022;5.686;2023-07-29T13:49:02;24.90;99.90
48535;DHT22;34323;52.022;5.686;2023-07-29T13:51:28;24.90;99.90
48535;DHT22;34323;52.022;5.686;2023-07-29T13:53:54;25.20;99.90
48535;DHT22;34323;52.022;5.686;2023-07-29T13:56:20;25.40;99.90
48535;DHT22;34323;52.022;5.686;2023-07-29T13:58:45;26.20;99.90
48535;DHT22;34323;52.022;5.686;2023-07-29T14:01:11;26.90;99.90
48535;DHT22;34323;52.022;5.686;2023-07-29T14:03:36;27.30;99.90
48535;DHT22;34323;52.022;5.686;2023-07-29T14:06:02;27.50;99.90
48535;DHT22;34323;52.022;5.686;2023-07-29T14:08:27;27.90;99.90
48535;DHT22;34323;52.022;5.686;2023-07-29T14:10:53;28.50;99.90
48535;DHT22;34323;52.022;5.686;2023-07-29T14:13:18;30.00;99.90
48535;DHT22;34323;52.022;5.686;2023-07-29T14:15:44;30.80;99.90
48535;DHT22;34323;52.022;5.686;2023-07-29T14:18:09;30.40;99.90
48535;DHT22;34323;52.022;5.686;2023-07-29T14:20:35;31.70;99.90
48535;DHT22;34323;52.022;5.686;2023-07-29T14:23:00;32.10;99.90
48535;DHT22;34323;52.022;5.686;2023-07-29T14:25:27;32.80;99.90
48535;DHT22;34323;52.022;5.686;2023-07-29T14:27:52;33.70;99.90
48535;DHT22;34323;52.022;5.686;2023-07-29T14:30:18;33.60;99.90
48535;DHT22;34323;52.022;5.686;2023-07-29T14:32:43;32.30;99.90
48535;DHT22;34323;52.022;5.686;2023-07-29T14:35:09;33.10;99.90
48535;DHT22;34323;52.022;5.686;2023-07-29T14:37:35;32.40;99.90
48535;DHT22;34323;52.022;5.686;2023-07-29T14:40:01;32.90;99.90
48535;DHT22;34323;52.022;5.686;2023-07-29T14:42:27;33.70;99.90
48535;DHT22;34323;52.022;5.686;2023-07-29T14:44:53;34.10;99.90
48535;DHT22;34323;52.022;5.686;2023-07-29T14:47:19;33.80;99.90
48535;DHT22;34323;52.022;5.686;2023-07-29T14:49:45;32.70;99.90
48535;DHT22;34323;52.022;5.686;2023-07-29T14:52:11;32.40;99.90
48535;DHT22;34323;52.022;5.686;2023-07-29T14:54:36;32.60;99.90
48535;DHT22;34323;52.022;5.686;2023-07-29T14:57:04;32.90;99.90
48535;DHT22;34323;52.022;5.686;2023-07-29T14:59:30;34.30;99.90
48535;DHT22;34323;52.022;5.686;2023-07-29T15:01:56;33.60;99.90
48535;DHT22;34323;52.022;5.686;2023-07-29T15:04:21;33.30;99.90
48535;DHT22;34323;52.022;5.686;2023-07-29T15:06:47;33.20;99.90
48535;DHT22;34323;52.022;5.686;2023-07-29T15:09:12;33.40;99.90
48535;DHT22;34323;52.022;5.686;2023-07-29T15:11:38;33.40;99.90
48535;DHT22;34323;52.022;5.686;2023-07-29T15:14:03;33.40;99.90
48535;DHT22;34323;52.022;5.686;2023-07-29T15:16:29;32.80;99.90
48535;DHT22;34323;52.022;5.686;2023-07-29T15:18:55;32.00;99.90
48535;DHT22;34323;52.022;5.686;2023-07-29T15:21:21;31.00;99.90
48535;DHT22;34323;52.022;5.686;2023-07-29T15:23:46;30.60;99.90
48535;DHT22;34323;52.022;5.686;2023-07-29T15:26:12;30.50;99.90
48535;DHT22;34323;52.022;5.686;2023-07-29T15:28:37;30.30;99.90
48535;DHT22;34323;52.022;5.686;2023-07-29T15:31:03;30.20;99.90
48535;DHT22;34323;52.022;5.686;2023-07-29T15:33:29;30.10;99.90